Latest Weather Observations for Jabiru

IDD60801

Issued at 7:31 pm CST Saturday 20 December 2014 (issued every 30 minutes, with the page automatically refreshed every 10 minutes)

About weather observations | Map of weather stations | Latest weather observations for NT | Other Formats
Station Details ID: 014198 Name: JABIRU AIRPORT Lat: -12.66 Lon: 132.89 Height: 26.5 m
Data from the previous 72 hours. | See also: Recent months at Jabiru
Date/Time
CST
Temp
°C
App
Temp
°C
Dew
Point
Rel
Hum
%
Delta-T
°C
Wind Press
QNH
hPa
Press
MSL
hPa
Rain
since 9 am
mm
Dir
 
Spd
km/h
Gust
km/h
Spd
kts
Gust
kts
20/07:30pm 31.1 34.3 22.4 60 5.9 E 9 15 5 8 1006.3 1006.1 0.0
20/07:00pm 32.0 34.7 22.1 55 6.8 ENE 11 15 6 8 1005.1 1004.9 0.0
20/06:30pm 32.4 36.0 23.1 58 6.4 ENE 9 15 5 8 1004.6 1004.4 0.0
20/06:00pm 35.0 38.4 22.7 49 8.5 NNE 9 11 5 6 1004.7 1004.5 0.0
20/05:30pm 35.9 39.4 22.1 44 9.5 N 7 9 4 5 1004.3 1004.1 0.0
20/05:00pm 35.9 38.9 21.3 42 9.9 N 7 9 4 5 1004.3 1004.1 0.0
20/04:30pm 36.5 39.6 21.5 41 10.3 NNE 7 11 4 6 1004.1 1003.9 0.0
20/04:00pm 36.9 40.2 21.5 41 10.5 SW 6 11 3 6 1004.4 1004.2 0.0
20/03:30pm 36.4 39.5 21.4 41 10.3 NNE 7 13 4 7 1004.8 1004.6 0.0
20/03:00pm 36.1 39.3 22.3 45 9.5 SW 9 15 5 8 1005.2 1005.0 0.0
20/02:30pm 34.8 38.5 23.2 51 8.1 WNW 9 15 5 8 1005.8 1005.6 0.0
20/02:00pm 34.5 38.4 22.9 51 8.0 WSW 7 13 4 7 1006.4 1006.2 0.0
20/01:30pm 34.7 38.7 22.7 49 8.3 SSE 6 13 3 7 1007.0 1006.8 0.0
20/01:00pm 34.5 38.4 22.6 50 8.2 WSW 6 9 3 5 1007.6 1007.4 0.0
20/12:30pm 34.6 38.5 23.0 51 8.0 NNE 7 13 4 7 1008.3 1008.0 0.0
20/12:00pm 34.1 37.0 22.5 50 8.0 WSW 11 17 6 9 1008.9 1008.6 0.0
20/11:30am 32.9 36.6 23.2 56 6.7 SW 9 13 5 7 1009.4 1009.1 0.0
20/11:00am 32.7 36.1 23.3 57 6.5 WNW 11 15 6 8 1009.6 1009.3 0.0
20/10:30am 32.5 36.5 23.7 59 6.1 WSW 9 15 5 8 1010.0 1009.7 0.0
20/10:00am 31.6 35.7 24.5 66 5.0 WNW 11 15 6 8 1010.5 1010.2 0.0
20/09:30am 31.3 36.6 25.2 70 4.3 SW 7 9 4 5 1010.8 1010.5 0.0
20/09:00am 30.0 35.4 25.1 75 3.5 WSW 6 9 3 5 1010.8 1010.5 0.0
20/08:30am 29.8 35.3 25.3 77 3.2 SSW 6 9 3 5 1010.7 1010.4 0.0
20/08:00am 29.9 36.9 25.9 79 2.8 CALM 0 6 0 3 1010.6 1010.3 0.0
20/07:30am 28.6 33.6 25.4 83 2.3 SW 9 11 5 6 1010.7 1010.4 0.0
20/07:00am 28.1 33.3 25.1 84 2.1 WSW 7 9 4 5 1010.3 1010.0 0.0
20/06:30am 28.2 33.3 25.0 83 2.2 W 7 9 4 5 1009.6 1009.3 0.0
20/06:00am 28.2 33.5 25.0 83 2.2 W 6 7 3 4 1009.0 1008.7 0.0
20/05:30am 28.1 33.2 24.9 83 2.2 WSW 7 9 4 5 1008.8 1008.5 0.0
20/05:00am 28.1 33.3 25.1 84 2.1 WNW 7 15 4 8 1008.6 1008.3 0.0
20/04:30am 28.3 33.4 24.7 81 2.5 NE 6 7 3 4 1008.4 1008.1 0.0
20/04:00am 28.4 33.8 25.2 83 2.2 ENE 6 7 3 4 1008.2 1007.9 0.0
20/03:30am 28.4 33.7 25.0 82 2.4 NNE 6 7 3 4 1008.2 1007.9 0.0
20/03:00am 28.6 34.2 25.4 83 2.3 N 6 7 3 4 1008.6 1008.3 0.0
20/02:30am 28.5 34.0 25.3 83 2.3 N 6 7 3 4 1009.0 1008.7 0.0
20/02:00am 28.4 34.1 25.6 85 2.0 NE 6 9 3 5 1008.9 1008.6 0.0
20/01:30am 28.5 33.8 25.3 83 2.3 N 7 9 4 5 1008.8 1008.5 0.0
20/01:00am 28.9 34.5 25.5 82 2.4 NW 6 7 3 4 1009.5 1009.2 0.0
20/12:30am 29.0 34.3 25.2 80 2.7 NW 7 9 4 5 1009.9 1009.6 0.0
20/12:00am 29.0 34.6 25.4 81 2.5 NNW 6 9 3 5 1010.5 1010.2 0.0
 
Date/Time
CST
Temp
°C
App
Temp
°C
Dew
Point
Rel
Hum
%
Delta-T
°C
Wind Press
QNH
hPa
Press
MSL
hPa
Rain
since 9 am
mm
Dir
 
Spd
km/h
Gust
km/h
Spd
kts
Gust
kts
19/11:30pm 29.2 34.8 25.4 80 2.7 NW 6 9 3 5 1010.7 1010.4 0.0
19/11:00pm 29.4 34.7 25.2 78 3.0 NNW 7 11 4 6 1010.5 1010.2 0.0
19/10:30pm 29.8 35.2 25.1 76 3.3 NNW 6 7 3 4 1010.2 1009.9 0.0
19/10:00pm 29.8 35.1 24.9 75 3.4 N 6 9 3 5 1009.8 1009.5 0.0
19/09:30pm 29.9 35.0 25.0 75 3.4 NNE 7 9 4 5 1009.4 1009.1 0.0
19/09:00pm 30.1 35.0 24.7 73 3.8 NNE 7 11 4 6 1009.1 1008.8 0.0
19/08:30pm 30.8 35.0 23.5 65 5.1 N 7 9 4 5 1008.9 1008.6 0.0
19/08:00pm 31.5 35.0 22.8 60 6.0 NNW 9 13 5 7 1008.6 1008.3 0.0
19/07:30pm 32.4 34.5 22.5 56 6.8 NNW 15 20 8 11 1007.5 1007.3 0.0
19/07:00pm 33.8 36.0 22.6 52 7.7 N 15 22 8 12 1006.9 1006.7 0.0
19/06:30pm 34.5 38.0 22.9 51 8.0 NNE 9 15 5 8 1005.6 1005.4 0.0
19/06:00pm 35.0 38.6 23.7 52 7.9 NE 11 15 6 8 1005.3 1005.1 0.0
19/05:30pm 35.4 39.9 23.7 50 8.2 NNE 6 9 3 5 1005.5 1005.3 0.0
19/05:00pm 35.1 38.6 22.8 49 8.5 NNW 9 13 5 7 1005.5 1005.3 0.0
19/04:30pm 34.4 35.4 21.8 48 8.6 NNW 19 30 10 16 1006.0 1005.8 0.0
19/04:00pm 37.0 40.0 21.9 41 10.4 NW 9 15 5 8 1005.9 1005.7 0.0
19/03:30pm 36.6 40.6 22.7 44 9.7 ESE 6 15 3 8 1006.1 1005.9 0.0
19/03:00pm 36.8 41.0 22.5 43 9.9 NNE 4 9 2 5 1006.5 1006.3 0.0
19/02:30pm 35.5 38.7 22.4 46 9.0 E 9 13 5 7 1007.0 1006.8 0.0
19/02:00pm 36.1 40.2 23.0 46 9.1 SW 6 11 3 6 1007.8 1007.6 0.0
19/01:30pm 34.9 39.2 23.6 52 7.9 NE 7 13 4 7 1008.5 1008.2 0.0
19/01:00pm 34.9 39.6 23.9 53 7.7 SW 6 9 3 5 1009.0 1008.7 0.0
19/12:30pm 34.5 38.9 23.5 52 7.7 WNW 6 11 3 6 1009.5 1009.2 0.0
19/12:00pm 34.3 39.7 25.4 60 6.3 ESE 7 13 4 7 1010.1 1009.8 0.0
19/11:30am 33.5 38.4 24.7 60 6.2 SW 7 11 4 6 1010.6 1010.3 0.0
19/11:00am 32.5 37.3 25.1 65 5.2 WNW 9 15 5 8 1010.8 1010.5 0.0
19/10:30am 32.4 37.6 25.7 68 4.8 S 9 13 5 7 1011.1 1010.8 0.0
19/10:00am 31.7 37.5 26.0 72 4.1 S 7 13 4 7 1011.4 1011.2 0.0
19/09:30am 30.7 36.9 26.4 78 3.1 W 6 9 3 5 1011.6 1011.4 0.0
19/09:00am 30.3 35.8 26.2 79 2.9 W 9 15 5 8 1011.4 1011.2 6.8
19/08:30am 29.5 35.9 26.1 82 2.4 N 4 7 2 4 1011.3 1011.0 6.8
19/08:00am 28.5 35.8 26.3 88 1.6 CALM 0 0 0 0 1011.0 1010.7 6.8
19/07:30am 27.5 33.5 26.1 92 1.0 ESE 6 7 3 4 1010.9 1010.6 6.8
19/07:00am 26.9 32.7 25.7 93 0.8 SE 6 7 3 4 1010.7 1010.4 6.8
19/06:30am 26.4 32.0 25.4 94 0.7 NE 6 6 3 3 1010.4 1010.1 6.8
19/06:00am 26.3 30.9 25.3 94 0.7 ENE 11 15 6 8 1010.1 1009.8 6.6
19/05:30am 26.1 30.8 24.3 90 1.2 E 7 13 4 7 1009.6 1009.3 6.0
19/05:00am 26.7 31.6 24.4 87 1.6 E 6 7 3 4 1009.4 1009.1 4.4
19/04:30am 26.8 32.9 24.5 87 1.6 CALM 0 0 0 0 1009.2 1008.9 4.4
19/04:00am 26.4 31.8 23.9 86 1.7 ESE 2 7 1 4 1009.1 1008.8 4.4
19/03:30am 26.2 31.3 24.1 88 1.4 ENE 4 7 2 4 1008.9 1008.6 4.4
19/03:00am 26.5 32.8 24.7 90 1.3 CALM 0 0 0 0 1009.0 1008.7 4.4
19/02:30am 26.3 32.3 24.2 88 1.5 CALM 0 0 0 0 1009.1 1008.8 4.4
19/02:00am 26.0 31.6 23.5 86 1.7 CALM 0 0 0 0 1009.1 1008.8 4.4
19/01:30am 25.9 30.4 23.6 87 1.6 E 6 7 3 4 1009.2 1008.9 4.4
19/01:00am 25.6 29.8 23.5 88 1.4 E 7 11 4 6 1009.2 1008.9 4.4
19/12:30am 25.3 30.1 23.5 90 1.2 S 4 9 2 5 1009.4 1009.1 4.4
19/12:00am 25.1 28.8 23.2 89 1.3 E 9 15 5 8 1009.5 1009.2 4.4
 
Date/Time
CST
Temp
°C
App
Temp
°C
Dew
Point
Rel
Hum
%
Delta-T
°C
Wind Press
QNH
hPa
Press
MSL
hPa
Rain
since 9 am
mm
Dir
 
Spd
km/h
Gust
km/h
Spd
kts
Gust
kts
18/11:30pm 25.2 28.3 22.9 87 1.6 E 11 15 6 8 1009.9 1009.6 4.4
18/11:00pm 25.3 28.5 23.0 87 1.6 ESE 11 15 6 8 1010.1 1009.8 4.4
18/10:30pm 26.6 31.1 24.6 89 1.4 WNW 9 15 5 8 1010.1 1009.8 4.4
18/10:00pm 25.0 27.7 22.9 88 1.4 NNE 13 19 7 10 1010.0 1009.7 4.0
18/09:42pm 25.4 26.5 21.9 81 2.3 ESE 19 35 10 19 1009.9 1009.6 1.0
18/09:30pm 30.5 32.9 23.7 67 4.7 SSE 17 37 9 20 1009.8 1009.5 0.0
18/09:00pm 30.1 35.8 25.6 77 3.2 NW 6 7 3 4 1008.7 1008.4 0.0
18/08:30pm 30.1 35.2 25.6 77 3.2 N 9 13 5 7 1007.9 1007.7 0.0
18/08:00pm 30.2 34.6 25.0 73 3.7 NNW 11 17 6 9 1007.7 1007.5 0.0
18/07:30pm 30.6 34.0 24.7 71 4.1 N 15 22 8 12 1007.4 1007.2 0.0
18/07:00pm 30.9 33.4 24.5 68 4.5 N 19 26 10 14 1006.9 1006.7 0.0
18/06:30pm 31.5 35.0 24.9 68 4.7 N 15 30 8 16 1006.2 1006.0 0.0
18/06:00pm 32.8 36.1 24.5 61 5.8 N 15 22 8 12 1006.2 1006.0 0.0
18/05:30pm 35.3 38.6 23.9 51 8.0 NW 13 19 7 10 1005.5 1005.3 0.0
18/05:00pm 35.7 38.9 24.3 51 8.0 NNW 15 20 8 11 1005.6 1005.4 0.0
18/04:30pm 36.2 39.4 24.4 50 8.4 NW 15 26 8 14 1005.4 1005.2 0.0
18/04:00pm 35.7 38.5 24.3 51 8.0 NNW 17 24 9 13 1005.8 1005.6 0.0
18/03:30pm 35.9 38.8 24.5 52 8.1 NW 17 24 9 13 1006.0 1005.8 0.0
18/03:00pm 36.6 40.6 22.0 43 10.1 SE 4 9 2 5 1006.4 1006.2 0.0
18/02:30pm 36.9 40.8 23.0 44 9.7 SSE 7 15 4 8 1006.9 1006.7 0.0
18/02:00pm 36.2 40.0 23.4 47 8.9 SSE 9 15 5 8 1007.3 1007.1 0.0
18/01:30pm 35.9 39.8 24.2 51 8.3 SSE 11 17 6 9 1007.9 1007.7 0.0
18/01:00pm 34.8 39.0 24.1 53 7.5 SSW 9 15 5 8 1008.3 1008.0 0.0
18/12:30pm 34.0 38.3 24.3 57 6.8 NW 9 13 5 7 1008.8 1008.5 0.0
18/12:00pm 33.6 38.8 24.8 60 6.2 N 6 11 3 6 1009.3 1009.0 0.0
18/11:30am 33.8 38.0 24.1 57 6.8 W 9 13 5 7 1009.7 1009.4 0.0
18/11:00am 33.0 38.3 25.3 64 5.5 WNW 7 11 4 6 1010.0 1009.7 0.0
18/10:30am 32.2 36.4 24.8 65 5.2 WNW 11 15 6 8 1010.3 1010.0 0.0
18/10:00am 31.8 36.4 24.7 66 5.0 NW 9 15 5 8 1010.4 1010.1 0.0
18/09:30am 31.2 36.6 25.1 70 4.3 W 6 11 3 6 1010.4 1010.1 0.0
18/09:00am 30.6 36.5 24.7 71 4.1 SSE 2 7 1 4 1010.2 1009.9 6.4
18/08:30am 30.2 35.4 24.8 73 3.8 ESE 6 7 3 4 1010.0 1009.7 6.4
18/08:00am 28.9 34.0 24.7 78 2.9 E 6 7 3 4 1009.7 1009.4 6.4
18/07:30am 27.9 33.2 24.9 84 2.1 ESE 6 7 3 4 1009.1 1008.8 6.4
18/07:00am 26.7 31.5 24.5 88 1.5 ESE 7 9 4 5 1008.7 1008.4 6.4
18/06:30am 26.0 30.8 24.2 90 1.2 E 6 7 3 4 1008.1 1007.8 6.4
18/06:00am 25.9 31.8 24.1 90 1.2 CALM 0 0 0 0 1007.6 1007.4 6.4
18/05:30am 25.7 30.4 23.9 90 1.2 E 6 9 3 5 1007.5 1007.3 6.4
18/05:00am 25.7 30.2 23.7 89 1.4 ESE 6 7 3 4 1007.4 1007.2 6.4
18/04:30am 25.5 29.5 23.7 90 1.2 ESE 9 11 5 6 1007.4 1007.2 6.4
18/04:00am 25.5 29.9 23.4 88 1.4 E 6 7 3 4 1007.2 1007.0 6.4
18/03:30am 25.8 30.9 23.3 86 1.7 ESE 2 9 1 5 1007.1 1006.9 6.4
18/03:00am 25.6 31.0 23.3 87 1.6 CALM 0 0 0 0 1007.0 1006.8 6.4
18/02:30am 25.5 29.4 23.0 86 1.7 ESE 7 9 4 5 1007.1 1006.9 6.4
18/02:00am 25.5 29.7 23.4 88 1.4 ESE 7 11 4 6 1007.1 1006.9 6.4
18/01:30am 25.3 29.6 23.7 91 1.1 E 7 9 4 5 1007.2 1007.0 6.4
18/01:00am 25.5 29.7 23.4 88 1.4 E 7 9 4 5 1007.3 1007.1 6.4
18/12:30am 25.4 30.0 23.8 91 1.1 E 6 7 3 4 1007.7 1007.5 6.4
18/12:00am 25.6 30.1 24.0 91 1.1 ENE 7 9 4 5 1008.3 1008.0 6.4
 
Date/Time
CST
Temp
°C
App
Temp
°C
Dew
Point
Rel
Hum
%
Delta-T
°C
Wind Press
QNH
hPa
Press
MSL
hPa
Rain
since 9 am
mm
Dir
 
Spd
km/h
Gust
km/h
Spd
kts
Gust
kts
17/11:30pm 25.8 31.5 23.8 89 1.4 CALM 0 0 0 0 1008.7 1008.4 6.4
17/11:00pm 25.9 30.4 23.6 87 1.6 NNE 6 7 3 4 1008.7 1008.4 6.4
17/10:30pm 25.7 30.8 23.4 87 1.6 SW 2 9 1 5 1008.7 1008.4 6.4
17/10:00pm 25.6 30.1 23.6 89 1.4 SSW 6 9 3 5 1008.4 1008.1 6.4
17/09:30pm 25.8 30.3 23.7 88 1.4 WNW 6 7 3 4 1007.9 1007.7 6.4
17/09:00pm 25.9 31.1 23.6 87 1.6 NNW 2 6 1 3 1008.1 1007.8 6.4
17/08:30pm 25.7 30.6 23.6 88 1.4 NE 4 7 2 4 1007.9 1007.7 6.4
17/08:00pm 25.4 29.6 23.1 87 1.6 SE 6 7 3 4 1007.6 1007.4 6.4

Other Formats:

Comma delimited format used in spreadsheet applications
http://www.bom.gov.au/fwo/IDD60801/IDD60801.94137.axf

JavaScript Object Notation format (JSON) in row-major order
http://www.bom.gov.au/fwo/IDD60801/IDD60801.94137.json